sensor_id;sensor_type;location;lat;lon;timestamp;P1;durP1;ratioP1;P2;durP2;ratioP2
5245;SDS011;54412;51.206;6.888;2022-11-20T00:01:18;15.13;;;13.43;;
5245;SDS011;54412;51.206;6.888;2022-11-20T00:03:47;15.50;;;12.90;;
5245;SDS011;54412;51.206;6.888;2022-11-20T00:06:15;15.17;;;12.60;;
5245;SDS011;54412;51.206;6.888;2022-11-20T00:08:43;16.40;;;14.20;;
5245;SDS011;54412;51.206;6.888;2022-11-20T00:11:10;18.17;;;14.77;;
5245;SDS011;54412;51.206;6.888;2022-11-20T00:13:40;17.00;;;12.70;;
5245;SDS011;54412;51.206;6.888;2022-11-20T00:16:06;20.17;;;14.27;;
5245;SDS011;54412;51.206;6.888;2022-11-20T00:18:36;18.13;;;14.37;;
5245;SDS011;54412;51.206;6.888;2022-11-20T00:21:02;15.03;;;13.33;;
5245;SDS011;54412;51.206;6.888;2022-11-20T00:23:37;19.63;;;15.80;;
5245;SDS011;54412;51.206;6.888;2022-11-20T00:26:06;18.13;;;14.00;;
5245;SDS011;54412;51.206;6.888;2022-11-20T00:28:38;17.50;;;14.50;;
5245;SDS011;54412;51.206;6.888;2022-11-20T00:31:05;20.40;;;14.73;;
5245;SDS011;54412;51.206;6.888;2022-11-20T00:33:33;17.77;;;14.40;;
5245;SDS011;54412;51.206;6.888;2022-11-20T00:36:00;19.03;;;15.17;;
5245;SDS011;54412;51.206;6.888;2022-11-20T00:38:29;18.00;;;14.33;;
5245;SDS011;54412;51.206;6.888;2022-11-20T00:40:59;22.40;;;16.33;;
5245;SDS011;54412;51.206;6.888;2022-11-20T00:43:27;19.80;;;15.50;;
5245;SDS011;54412;51.206;6.888;2022-11-20T00:45:57;19.13;;;14.03;;
5245;SDS011;54412;51.206;6.888;2022-11-20T00:48:43;16.70;;;13.10;;
5245;SDS011;54412;51.206;6.888;2022-11-20T00:51:13;20.43;;;15.83;;
5245;SDS011;54412;51.206;6.888;2022-11-20T00:53:42;19.03;;;15.73;;
5245;SDS011;54412;51.206;6.888;2022-11-20T00:56:10;20.30;;;14.57;;
5245;SDS011;54412;51.206;6.888;2022-11-20T00:58:39;18.10;;;14.93;;
5245;SDS011;54412;51.206;6.888;2022-11-20T01:01:10;18.80;;;15.60;;
5245;SDS011;54412;51.206;6.888;2022-11-20T01:03:39;19.47;;;15.77;;
5245;SDS011;54412;51.206;6.888;2022-11-20T01:06:27;18.03;;;14.73;;
5245;SDS011;54412;51.206;6.888;2022-11-20T01:09:02;18.67;;;14.83;;
5245;SDS011;54412;51.206;6.888;2022-11-20T01:11:37;20.40;;;16.00;;
5245;SDS011;54412;51.206;6.888;2022-11-20T01:14:06;18.77;;;15.40;;
5245;SDS011;54412;51.206;6.888;2022-11-20T01:16:38;20.10;;;15.67;;
5245;SDS011;54412;51.206;6.888;2022-11-20T01:19:09;20.90;;;16.13;;
5245;SDS011;54412;51.206;6.888;2022-11-20T01:21:42;22.83;;;17.53;;
5245;SDS011;54412;51.206;6.888;2022-11-20T01:24:10;22.43;;;16.10;;
5245;SDS011;54412;51.206;6.888;2022-11-20T01:26:40;22.50;;;15.87;;
5245;SDS011;54412;51.206;6.888;2022-11-20T01:29:09;22.23;;;16.20;;
5245;SDS011;54412;51.206;6.888;2022-11-20T01:31:42;20.60;;;16.40;;
5245;SDS011;54412;51.206;6.888;2022-11-20T01:34:16;24.37;;;17.77;;
5245;SDS011;54412;51.206;6.888;2022-11-20T01:36:44;28.03;;;18.20;;
5245;SDS011;54412;51.206;6.888;2022-11-20T01:39:32;21.40;;;16.70;;
5245;SDS011;54412;51.206;6.888;2022-11-20T01:41:57;20.50;;;16.50;;
5245;SDS011;54412;51.206;6.888;2022-11-20T01:45:00;24.67;;;17.30;;
5245;SDS011;54412;51.206;6.888;2022-11-20T01:53:00;20.70;;;16.10;;
5245;SDS011;54412;51.206;6.888;2022-11-20T01:55:34;23.30;;;17.50;;
5245;SDS011;54412;51.206;6.888;2022-11-20T01:58:06;26.43;;;18.93;;
5245;SDS011;54412;51.206;6.888;2022-11-20T02:00:33;23.83;;;17.20;;
5245;SDS011;54412;51.206;6.888;2022-11-20T02:03:00;22.47;;;16.60;;
5245;SDS011;54412;51.206;6.888;2022-11-20T02:08:33;23.77;;;17.13;;
5245;SDS011;54412;51.206;6.888;2022-11-20T02:11:01;21.07;;;17.30;;
5245;SDS011;54412;51.206;6.888;2022-11-20T02:13:27;22.97;;;17.73;;
5245;SDS011;54412;51.206;6.888;2022-11-20T02:16:08;21.93;;;16.40;;
5245;SDS011;54412;51.206;6.888;2022-11-20T02:18:46;22.60;;;17.50;;
5245;SDS011;54412;51.206;6.888;2022-11-20T02:21:21;22.07;;;16.90;;
5245;SDS011;54412;51.206;6.888;2022-11-20T02:24:15;24.27;;;16.77;;
5245;SDS011;54412;51.206;6.888;2022-11-20T02:26:46;21.20;;;16.87;;
5245;SDS011;54412;51.206;6.888;2022-11-20T02:29:40;21.13;;;16.87;;
5245;SDS011;54412;51.206;6.888;2022-11-20T02:32:23;23.73;;;18.03;;
5245;SDS011;54412;51.206;6.888;2022-11-20T02:34:55;22.20;;;16.80;;
5245;SDS011;54412;51.206;6.888;2022-11-20T02:37:22;22.47;;;18.17;;
5245;SDS011;54412;51.206;6.888;2022-11-20T02:39:55;22.77;;;17.50;;
5245;SDS011;54412;51.206;6.888;2022-11-20T02:42:21;20.47;;;16.63;;
5245;SDS011;54412;51.206;6.888;2022-11-20T02:44:47;26.83;;;17.07;;
5245;SDS011;54412;51.206;6.888;2022-11-20T02:47:12;25.07;;;17.97;;
5245;SDS011;54412;51.206;6.888;2022-11-20T02:49:38;21.30;;;16.57;;
5245;SDS011;54412;51.206;6.888;2022-11-20T02:52:04;24.93;;;17.63;;
5245;SDS011;54412;51.206;6.888;2022-11-20T02:54:29;21.40;;;16.67;;
5245;SDS011;54412;51.206;6.888;2022-11-20T02:56:55;21.20;;;16.37;;
5245;SDS011;54412;51.206;6.888;2022-11-20T02:59:21;18.83;;;15.93;;
5245;SDS011;54412;51.206;6.888;2022-11-20T03:01:47;23.10;;;16.97;;
5245;SDS011;54412;51.206;6.888;2022-11-20T03:04:12;20.13;;;15.70;;
5245;SDS011;54412;51.206;6.888;2022-11-20T03:06:38;23.17;;;16.90;;
5245;SDS011;54412;51.206;6.888;2022-11-20T03:09:03;23.30;;;17.10;;
5245;SDS011;54412;51.206;6.888;2022-11-20T03:11:29;19.90;;;16.13;;
5245;SDS011;54412;51.206;6.888;2022-11-20T03:13:55;17.33;;;15.20;;
5245;SDS011;54412;51.206;6.888;2022-11-20T03:16:21;23.97;;;17.00;;
5245;SDS011;54412;51.206;6.888;2022-11-20T03:18:48;23.30;;;15.30;;
5245;SDS011;54412;51.206;6.888;2022-11-20T03:21:17;20.43;;;15.70;;
5245;SDS011;54412;51.206;6.888;2022-11-20T03:23:42;19.00;;;15.33;;
5245;SDS011;54412;51.206;6.888;2022-11-20T03:26:13;20.40;;;16.10;;
5245;SDS011;54412;51.206;6.888;2022-11-20T03:28:52;21.47;;;15.60;;
5245;SDS011;54412;51.206;6.888;2022-11-20T03:31:21;21.53;;;15.40;;
5245;SDS011;54412;51.206;6.888;2022-11-20T03:33:50;21.23;;;17.20;;
5245;SDS011;54412;51.206;6.888;2022-11-20T03:36:16;22.90;;;16.53;;
5245;SDS011;54412;51.206;6.888;2022-11-20T03:38:44;20.00;;;16.53;;
5245;SDS011;54412;51.206;6.888;2022-11-20T03:41:11;20.27;;;15.47;;
5245;SDS011;54412;51.206;6.888;2022-11-20T03:43:39;19.23;;;15.63;;
5245;SDS011;54412;51.206;6.888;2022-11-20T03:46:06;22.20;;;16.00;;
5245;SDS011;54412;51.206;6.888;2022-11-20T03:48:32;20.53;;;16.50;;
5245;SDS011;54412;51.206;6.888;2022-11-20T03:51:08;19.23;;;15.60;;
5245;SDS011;54412;51.206;6.888;2022-11-20T03:53:37;21.73;;;16.20;;
5245;SDS011;54412;51.206;6.888;2022-11-20T03:56:04;18.10;;;15.00;;
5245;SDS011;54412;51.206;6.888;2022-11-20T03:58:32;21.10;;;15.97;;
5245;SDS011;54412;51.206;6.888;2022-11-20T04:01:04;19.40;;;15.00;;
5245;SDS011;54412;51.206;6.888;2022-11-20T04:03:35;21.37;;;16.70;;
5245;SDS011;54412;51.206;6.888;2022-11-20T04:06:03;18.33;;;13.93;;
5245;SDS011;54412;51.206;6.888;2022-11-20T04:08:31;20.13;;;15.37;;
5245;SDS011;54412;51.206;6.888;2022-11-20T04:11:07;18.57;;;15.20;;
5245;SDS011;54412;51.206;6.888;2022-11-20T04:13:52;22.60;;;16.57;;
5245;SDS011;54412;51.206;6.888;2022-11-20T04:16:24;20.27;;;15.60;;
5245;SDS011;54412;51.206;6.888;2022-11-20T04:18:54;19.00;;;15.57;;
5245;SDS011;54412;51.206;6.888;2022-11-20T04:21:26;20.23;;;16.20;;
5245;SDS011;54412;51.206;6.888;2022-11-20T04:23:54;18.77;;;14.37;;
5245;SDS011;54412;51.206;6.888;2022-11-20T04:26:21;21.80;;;16.17;;
5245;SDS011;54412;51.206;6.888;2022-11-20T04:28:49;18.60;;;15.80;;
5245;SDS011;54412;51.206;6.888;2022-11-20T04:31:17;21.13;;;15.30;;
5245;SDS011;54412;51.206;6.888;2022-11-20T04:33:46;18.67;;;14.57;;
5245;SDS011;54412;51.206;6.888;2022-11-20T04:36:14;20.67;;;15.90;;
5245;SDS011;54412;51.206;6.888;2022-11-20T04:38:43;24.00;;;16.63;;
5245;SDS011;54412;51.206;6.888;2022-11-20T04:41:12;19.93;;;15.03;;
5245;SDS011;54412;51.206;6.888;2022-11-20T04:43:45;22.40;;;14.87;;
5245;SDS011;54412;51.206;6.888;2022-11-20T04:46:16;19.90;;;15.83;;
5245;SDS011;54412;51.206;6.888;2022-11-20T04:48:45;19.47;;;14.83;;
5245;SDS011;54412;51.206;6.888;2022-11-20T04:51:12;21.20;;;15.67;;
5245;SDS011;54412;51.206;6.888;2022-11-20T04:53:38;19.87;;;15.73;;
5245;SDS011;54412;51.206;6.888;2022-11-20T04:56:04;20.07;;;15.50;;
5245;SDS011;54412;51.206;6.888;2022-11-20T04:58:33;22.00;;;15.10;;
5245;SDS011;54412;51.206;6.888;2022-11-20T05:01:02;21.60;;;15.40;;
5245;SDS011;54412;51.206;6.888;2022-11-20T05:03:37;16.50;;;13.80;;
5245;SDS011;54412;51.206;6.888;2022-11-20T05:06:04;19.10;;;15.37;;
5245;SDS011;54412;51.206;6.888;2022-11-20T05:08:31;19.07;;;14.70;;
5245;SDS011;54412;51.206;6.888;2022-11-20T05:11:01;18.80;;;14.70;;
5245;SDS011;54412;51.206;6.888;2022-11-20T05:13:33;19.47;;;14.70;;
5245;SDS011;54412;51.206;6.888;2022-11-20T05:16:03;22.97;;;16.27;;
5245;SDS011;54412;51.206;6.888;2022-11-20T05:18:35;18.50;;;15.37;;
5245;SDS011;54412;51.206;6.888;2022-11-20T05:21:02;17.50;;;14.53;;
5245;SDS011;54412;51.206;6.888;2022-11-20T05:23:29;20.60;;;14.80;;
5245;SDS011;54412;51.206;6.888;2022-11-20T05:25:56;22.80;;;16.57;;
5245;SDS011;54412;51.206;6.888;2022-11-20T05:28:23;19.43;;;16.17;;
5245;SDS011;54412;51.206;6.888;2022-11-20T05:30:51;19.90;;;16.10;;
5245;SDS011;54412;51.206;6.888;2022-11-20T05:33:17;22.50;;;17.00;;
5245;SDS011;54412;51.206;6.888;2022-11-20T05:35:43;22.50;;;16.20;;
5245;SDS011;54412;51.206;6.888;2022-11-20T05:38:09;22.17;;;16.97;;
5245;SDS011;54412;51.206;6.888;2022-11-20T05:40:35;23.60;;;18.60;;
5245;SDS011;54412;51.206;6.888;2022-11-20T05:43:02;24.80;;;16.87;;
5245;SDS011;54412;51.206;6.888;2022-11-20T05:45:27;19.97;;;16.50;;
5245;SDS011;54412;51.206;6.888;2022-11-20T05:47:53;19.27;;;15.50;;
5245;SDS011;54412;51.206;6.888;2022-11-20T05:50:23;24.10;;;17.27;;
5245;SDS011;54412;51.206;6.888;2022-11-20T05:52:48;20.27;;;15.40;;
5245;SDS011;54412;51.206;6.888;2022-11-20T05:55:14;20.77;;;16.37;;
5245;SDS011;54412;51.206;6.888;2022-11-20T05:57:40;20.47;;;16.43;;
5245;SDS011;54412;51.206;6.888;2022-11-20T06:00:06;20.73;;;16.23;;
5245;SDS011;54412;51.206;6.888;2022-11-20T06:02:34;21.20;;;16.40;;
5245;SDS011;54412;51.206;6.888;2022-11-20T06:05:00;21.17;;;16.30;;
5245;SDS011;54412;51.206;6.888;2022-11-20T06:07:26;20.17;;;16.30;;
5245;SDS011;54412;51.206;6.888;2022-11-20T06:09:52;21.97;;;17.03;;
5245;SDS011;54412;51.206;6.888;2022-11-20T06:12:18;21.27;;;16.53;;
5245;SDS011;54412;51.206;6.888;2022-11-20T06:14:43;22.00;;;16.87;;
5245;SDS011;54412;51.206;6.888;2022-11-20T06:17:09;21.07;;;17.03;;
5245;SDS011;54412;51.206;6.888;2022-11-20T06:19:34;28.33;;;18.27;;
5245;SDS011;54412;51.206;6.888;2022-11-20T06:22:00;21.43;;;16.60;;
5245;SDS011;54412;51.206;6.888;2022-11-20T06:24:26;19.57;;;16.03;;
5245;SDS011;54412;51.206;6.888;2022-11-20T06:26:51;20.33;;;16.93;;
5245;SDS011;54412;51.206;6.888;2022-11-20T06:29:17;23.97;;;17.73;;
5245;SDS011;54412;51.206;6.888;2022-11-20T06:31:43;22.53;;;16.37;;
5245;SDS011;54412;51.206;6.888;2022-11-20T06:34:08;19.93;;;16.03;;
5245;SDS011;54412;51.206;6.888;2022-11-20T06:36:34;19.67;;;15.53;;
5245;SDS011;54412;51.206;6.888;2022-11-20T06:39:00;22.70;;;17.13;;
5245;SDS011;54412;51.206;6.888;2022-11-20T06:41:26;21.40;;;17.07;;
5245;SDS011;54412;51.206;6.888;2022-11-20T06:43:52;21.80;;;16.10;;
5245;SDS011;54412;51.206;6.888;2022-11-20T06:46:19;23.87;;;17.17;;
5245;SDS011;54412;51.206;6.888;2022-11-20T06:48:46;24.87;;;16.73;;
5245;SDS011;54412;51.206;6.888;2022-11-20T06:51:13;22.40;;;17.00;;
5245;SDS011;54412;51.206;6.888;2022-11-20T06:53:39;21.57;;;16.73;;
5245;SDS011;54412;51.206;6.888;2022-11-20T06:56:05;21.87;;;17.10;;
5245;SDS011;54412;51.206;6.888;2022-11-20T06:58:33;22.63;;;17.30;;
5245;SDS011;54412;51.206;6.888;2022-11-20T07:01:00;22.03;;;17.50;;
5245;SDS011;54412;51.206;6.888;2022-11-20T07:03:32;23.20;;;18.07;;
5245;SDS011;54412;51.206;6.888;2022-11-20T07:05:58;19.47;;;16.30;;
5245;SDS011;54412;51.206;6.888;2022-11-20T07:08:26;19.00;;;15.17;;
5245;SDS011;54412;51.206;6.888;2022-11-20T07:10:52;26.20;;;17.60;;
5245;SDS011;54412;51.206;6.888;2022-11-20T07:13:23;20.90;;;16.00;;
5245;SDS011;54412;51.206;6.888;2022-11-20T07:15:49;23.50;;;17.00;;
5245;SDS011;54412;51.206;6.888;2022-11-20T07:18:14;23.77;;;17.00;;
5245;SDS011;54412;51.206;6.888;2022-11-20T07:20:40;22.27;;;15.53;;
5245;SDS011;54412;51.206;6.888;2022-11-20T07:23:06;22.63;;;17.67;;
5245;SDS011;54412;51.206;6.888;2022-11-20T07:25:31;22.20;;;16.03;;
5245;SDS011;54412;51.206;6.888;2022-11-20T07:27:58;20.83;;;16.53;;
5245;SDS011;54412;51.206;6.888;2022-11-20T07:30:26;19.93;;;15.77;;
5245;SDS011;54412;51.206;6.888;2022-11-20T07:32:53;20.13;;;15.90;;
5245;SDS011;54412;51.206;6.888;2022-11-20T07:35:21;18.40;;;14.93;;
5245;SDS011;54412;51.206;6.888;2022-11-20T07:37:48;19.23;;;14.50;;
5245;SDS011;54412;51.206;6.888;2022-11-20T07:40:14;19.43;;;15.10;;
5245;SDS011;54412;51.206;6.888;2022-11-20T07:42:47;16.80;;;14.23;;
5245;SDS011;54412;51.206;6.888;2022-11-20T07:45:19;20.13;;;14.73;;
5245;SDS011;54412;51.206;6.888;2022-11-20T07:47:46;23.23;;;14.97;;
5245;SDS011;54412;51.206;6.888;2022-11-20T07:50:13;18.67;;;14.30;;
5245;SDS011;54412;51.206;6.888;2022-11-20T07:52:39;20.10;;;15.37;;
5245;SDS011;54412;51.206;6.888;2022-11-20T07:55:08;21.70;;;14.73;;
5245;SDS011;54412;51.206;6.888;2022-11-20T07:57:35;22.90;;;15.53;;
5245;SDS011;54412;51.206;6.888;2022-11-20T08:00:01;22.40;;;15.27;;
5245;SDS011;54412;51.206;6.888;2022-11-20T08:02:29;19.20;;;14.33;;
5245;SDS011;54412;51.206;6.888;2022-11-20T08:04:54;16.93;;;13.53;;
5245;SDS011;54412;51.206;6.888;2022-11-20T08:07:20;19.03;;;14.10;;
5245;SDS011;54412;51.206;6.888;2022-11-20T08:09:46;17.70;;;14.93;;
5245;SDS011;54412;51.206;6.888;2022-11-20T08:12:18;22.53;;;15.77;;
5245;SDS011;54412;51.206;6.888;2022-11-20T08:15:04;20.77;;;15.60;;
5245;SDS011;54412;51.206;6.888;2022-11-20T08:17:31;23.07;;;17.53;;
5245;SDS011;54412;51.206;6.888;2022-11-20T08:19:57;23.27;;;17.20;;
5245;SDS011;54412;51.206;6.888;2022-11-20T08:22:23;27.07;;;18.70;;
5245;SDS011;54412;51.206;6.888;2022-11-20T08:24:49;27.03;;;16.90;;
5245;SDS011;54412;51.206;6.888;2022-11-20T08:27:15;21.97;;;16.77;;
5245;SDS011;54412;51.206;6.888;2022-11-20T08:29:41;23.07;;;17.23;;
5245;SDS011;54412;51.206;6.888;2022-11-20T08:32:06;21.77;;;15.50;;
5245;SDS011;54412;51.206;6.888;2022-11-20T08:34:32;23.37;;;16.97;;
5245;SDS011;54412;51.206;6.888;2022-11-20T08:36:58;28.40;;;18.30;;
5245;SDS011;54412;51.206;6.888;2022-11-20T08:39:23;21.43;;;17.40;;
5245;SDS011;54412;51.206;6.888;2022-11-20T08:41:49;22.70;;;16.80;;
5245;SDS011;54412;51.206;6.888;2022-11-20T08:44:15;21.77;;;16.67;;
5245;SDS011;54412;51.206;6.888;2022-11-20T08:46:41;21.40;;;17.10;;
5245;SDS011;54412;51.206;6.888;2022-11-20T08:49:09;24.73;;;17.90;;
5245;SDS011;54412;51.206;6.888;2022-11-20T08:51:37;21.63;;;17.53;;
5245;SDS011;54412;51.206;6.888;2022-11-20T08:54:04;22.07;;;16.03;;
5245;SDS011;54412;51.206;6.888;2022-11-20T08:56:30;21.97;;;17.00;;
5245;SDS011;54412;51.206;6.888;2022-11-20T08:58:56;29.93;;;18.20;;
5245;SDS011;54412;51.206;6.888;2022-11-20T09:01:24;20.60;;;15.60;;
5245;SDS011;54412;51.206;6.888;2022-11-20T09:03:51;20.00;;;16.13;;
5245;SDS011;54412;51.206;6.888;2022-11-20T09:06:17;24.40;;;16.90;;
5245;SDS011;54412;51.206;6.888;2022-11-20T09:08:43;23.00;;;17.53;;
5245;SDS011;54412;51.206;6.888;2022-11-20T09:11:08;22.83;;;17.17;;
5245;SDS011;54412;51.206;6.888;2022-11-20T09:13:35;23.80;;;16.70;;
5245;SDS011;54412;51.206;6.888;2022-11-20T09:16:02;22.43;;;16.80;;
5245;SDS011;54412;51.206;6.888;2022-11-20T09:18:32;21.70;;;16.27;;
5245;SDS011;54412;51.206;6.888;2022-11-20T09:21:02;20.47;;;16.30;;
5245;SDS011;54412;51.206;6.888;2022-11-20T09:23:32;19.27;;;15.37;;
5245;SDS011;54412;51.206;6.888;2022-11-20T09:26:08;21.90;;;17.10;;
5245;SDS011;54412;51.206;6.888;2022-11-20T09:28:36;20.20;;;15.83;;
5245;SDS011;54412;51.206;6.888;2022-11-20T09:31:13;21.90;;;17.33;;
5245;SDS011;54412;51.206;6.888;2022-11-20T09:33:50;23.40;;;16.20;;
5245;SDS011;54412;51.206;6.888;2022-11-20T09:36:18;26.63;;;19.70;;
5245;SDS011;54412;51.206;6.888;2022-11-20T09:38:46;21.13;;;16.20;;
5245;SDS011;54412;51.206;6.888;2022-11-20T09:41:28;20.47;;;17.13;;
5245;SDS011;54412;51.206;6.888;2022-11-20T09:46:58;21.40;;;15.80;;
5245;SDS011;54412;51.206;6.888;2022-11-20T09:52:37;22.33;;;16.87;;
5245;SDS011;54412;51.206;6.888;2022-11-20T09:55:12;19.40;;;14.90;;
5245;SDS011;54412;51.206;6.888;2022-11-20T09:57:41;22.93;;;15.40;;
5245;SDS011;54412;51.206;6.888;2022-11-20T10:00:13;19.07;;;15.60;;
5245;SDS011;54412;51.206;6.888;2022-11-20T10:13:30;19.97;;;17.37;;
5245;SDS011;54412;51.206;6.888;2022-11-20T10:25:15;19.33;;;15.47;;
5245;SDS011;54412;51.206;6.888;2022-11-20T10:27:49;19.10;;;15.70;;
5245;SDS011;54412;51.206;6.888;2022-11-20T10:30:25;21.57;;;15.60;;
5245;SDS011;54412;51.206;6.888;2022-11-20T10:35:41;19.00;;;14.57;;
5245;SDS011;54412;51.206;6.888;2022-11-20T10:38:34;18.87;;;15.43;;
5245;SDS011;54412;51.206;6.888;2022-11-20T10:41:07;24.23;;;17.00;;
5245;SDS011;54412;51.206;6.888;2022-11-20T10:44:05;20.50;;;15.77;;
5245;SDS011;54412;51.206;6.888;2022-11-20T10:46:39;22.17;;;16.03;;
5245;SDS011;54412;51.206;6.888;2022-11-20T10:49:13;20.70;;;15.20;;
5245;SDS011;54412;51.206;6.888;2022-11-20T10:54:51;19.13;;;15.03;;
5245;SDS011;54412;51.206;6.888;2022-11-20T10:57:52;22.07;;;14.23;;
5245;SDS011;54412;51.206;6.888;2022-11-20T11:00:34;20.10;;;14.30;;
5245;SDS011;54412;51.206;6.888;2022-11-20T11:03:00;18.97;;;14.40;;
5245;SDS011;54412;51.206;6.888;2022-11-20T11:05:39;17.30;;;13.80;;
5245;SDS011;54412;51.206;6.888;2022-11-20T11:08:16;21.70;;;15.10;;
5245;SDS011;54412;51.206;6.888;2022-11-20T11:10:49;17.50;;;14.30;;
5245;SDS011;54412;51.206;6.888;2022-11-20T11:13:28;19.43;;;14.60;;
5245;SDS011;54412;51.206;6.888;2022-11-20T11:15:55;20.83;;;15.73;;
5245;SDS011;54412;51.206;6.888;2022-11-20T11:18:23;21.47;;;16.07;;
5245;SDS011;54412;51.206;6.888;2022-11-20T11:21:00;22.40;;;15.90;;
5245;SDS011;54412;51.206;6.888;2022-11-20T11:23:38;22.13;;;17.20;;
5245;SDS011;54412;51.206;6.888;2022-11-20T11:26:17;22.97;;;16.83;;
5245;SDS011;54412;51.206;6.888;2022-11-20T11:29:01;21.60;;;16.40;;
5245;SDS011;54412;51.206;6.888;2022-11-20T11:31:30;25.67;;;17.63;;
5245;SDS011;54412;51.206;6.888;2022-11-20T11:34:13;25.70;;;16.50;;
5245;SDS011;54412;51.206;6.888;2022-11-20T11:36:42;24.20;;;16.83;;
5245;SDS011;54412;51.206;6.888;2022-11-20T11:39:22;22.13;;;16.70;;
5245;SDS011;54412;51.206;6.888;2022-11-20T11:41:51;21.13;;;16.10;;
5245;SDS011;54412;51.206;6.888;2022-11-20T11:44:21;25.47;;;17.43;;
5245;SDS011;54412;51.206;6.888;2022-11-20T11:50:01;22.90;;;16.90;;
5245;SDS011;54412;51.206;6.888;2022-11-20T11:52:42;24.30;;;17.27;;
5245;SDS011;54412;51.206;6.888;2022-11-20T12:01:32;24.30;;;17.77;;
5245;SDS011;54412;51.206;6.888;2022-11-20T12:04:38;24.30;;;17.43;;
5245;SDS011;54412;51.206;6.888;2022-11-20T12:07:57;24.80;;;17.80;;
5245;SDS011;54412;51.206;6.888;2022-11-20T12:10:08;23.87;;;17.33;;
5245;SDS011;54412;51.206;6.888;2022-11-20T12:13:04;23.17;;;16.80;;
5245;SDS011;54412;51.206;6.888;2022-11-20T12:15:58;23.83;;;16.80;;
5245;SDS011;54412;51.206;6.888;2022-11-20T12:18:25;23.03;;;16.87;;
5245;SDS011;54412;51.206;6.888;2022-11-20T12:20:56;25.87;;;17.70;;
5245;SDS011;54412;51.206;6.888;2022-11-20T12:32:28;27.60;;;19.17;;
5245;SDS011;54412;51.206;6.888;2022-11-20T12:35:44;28.53;;;20.50;;
5245;SDS011;54412;51.206;6.888;2022-11-20T12:38:29;29.50;;;19.10;;
5245;SDS011;54412;51.206;6.888;2022-11-20T12:53:40;26.23;;;18.27;;
5245;SDS011;54412;51.206;6.888;2022-11-20T12:56:17;28.00;;;20.03;;
5245;SDS011;54412;51.206;6.888;2022-11-20T12:59:10;25.33;;;19.73;;
5245;SDS011;54412;51.206;6.888;2022-11-20T13:02:03;24.70;;;19.13;;
5245;SDS011;54412;51.206;6.888;2022-11-20T13:05:19;26.90;;;19.50;;
5245;SDS011;54412;51.206;6.888;2022-11-20T13:07:57;31.73;;;19.80;;
5245;SDS011;54412;51.206;6.888;2022-11-20T13:13:56;29.33;;;20.53;;
5245;SDS011;54412;51.206;6.888;2022-11-20T13:19:02;31.50;;;22.17;;
5245;SDS011;54412;51.206;6.888;2022-11-20T13:21:40;28.83;;;19.40;;
5245;SDS011;54412;51.206;6.888;2022-11-20T13:24:22;29.80;;;20.00;;
5245;SDS011;54412;51.206;6.888;2022-11-20T13:29:39;32.50;;;21.07;;
5245;SDS011;54412;51.206;6.888;2022-11-20T13:32:17;27.20;;;19.80;;
5245;SDS011;54412;51.206;6.888;2022-11-20T13:34:52;31.60;;;21.47;;
5245;SDS011;54412;51.206;6.888;2022-11-20T13:42:39;31.20;;;21.40;;
5245;SDS011;54412;51.206;6.888;2022-11-20T13:45:31;36.77;;;23.70;;
5245;SDS011;54412;51.206;6.888;2022-11-20T13:48:00;39.10;;;22.13;;
5245;SDS011;54412;51.206;6.888;2022-11-20T13:53:05;35.50;;;23.10;;
5245;SDS011;54412;51.206;6.888;2022-11-20T13:56:08;37.70;;;23.67;;
5245;SDS011;54412;51.206;6.888;2022-11-20T14:02:18;29.30;;;20.33;;
5245;SDS011;54412;51.206;6.888;2022-11-20T14:04:48;27.40;;;21.27;;
5245;SDS011;54412;51.206;6.888;2022-11-20T14:07:17;33.53;;;22.07;;
5245;SDS011;54412;51.206;6.888;2022-11-20T14:09:51;33.43;;;21.93;;
5245;SDS011;54412;51.206;6.888;2022-11-20T14:12:20;31.50;;;21.20;;
5245;SDS011;54412;51.206;6.888;2022-11-20T14:14:53;32.30;;;21.33;;
5245;SDS011;54412;51.206;6.888;2022-11-20T14:17:32;30.03;;;21.07;;
5245;SDS011;54412;51.206;6.888;2022-11-20T14:20:04;30.30;;;21.43;;
5245;SDS011;54412;51.206;6.888;2022-11-20T14:22:38;30.83;;;20.97;;
5245;SDS011;54412;51.206;6.888;2022-11-20T14:27:42;30.10;;;20.00;;
5245;SDS011;54412;51.206;6.888;2022-11-20T14:30:16;37.73;;;22.57;;
5245;SDS011;54412;51.206;6.888;2022-11-20T14:32:48;33.53;;;23.80;;
5245;SDS011;54412;51.206;6.888;2022-11-20T14:35:19;33.73;;;23.63;;
5245;SDS011;54412;51.206;6.888;2022-11-20T14:37:52;30.70;;;20.50;;
5245;SDS011;54412;51.206;6.888;2022-11-20T14:40:34;34.30;;;21.87;;
5245;SDS011;54412;51.206;6.888;2022-11-20T14:43:01;37.27;;;22.73;;
5245;SDS011;54412;51.206;6.888;2022-11-20T14:45:43;36.37;;;23.23;;
5245;SDS011;54412;51.206;6.888;2022-11-20T14:48:13;35.90;;;22.53;;
5245;SDS011;54412;51.206;6.888;2022-11-20T14:50:40;33.40;;;22.37;;
5245;SDS011;54412;51.206;6.888;2022-11-20T14:53:06;35.30;;;22.87;;
5245;SDS011;54412;51.206;6.888;2022-11-20T14:55:33;38.73;;;23.67;;
5245;SDS011;54412;51.206;6.888;2022-11-20T14:58:06;35.13;;;22.47;;
5245;SDS011;54412;51.206;6.888;2022-11-20T15:00:54;34.90;;;21.53;;
5245;SDS011;54412;51.206;6.888;2022-11-20T15:03:38;30.90;;;20.83;;
5245;SDS011;54412;51.206;6.888;2022-11-20T15:06:06;32.20;;;19.03;;
5245;SDS011;54412;51.206;6.888;2022-11-20T15:08:36;30.20;;;19.10;;
5245;SDS011;54412;51.206;6.888;2022-11-20T15:11:02;36.03;;;22.13;;
5245;SDS011;54412;51.206;6.888;2022-11-20T15:13:29;28.20;;;18.80;;
5245;SDS011;54412;51.206;6.888;2022-11-20T15:15:58;26.20;;;19.03;;
5245;SDS011;54412;51.206;6.888;2022-11-20T15:18:36;28.80;;;18.87;;
5245;SDS011;54412;51.206;6.888;2022-11-20T15:21:16;26.80;;;19.50;;
5245;SDS011;54412;51.206;6.888;2022-11-20T15:23:45;27.90;;;19.07;;
5245;SDS011;54412;51.206;6.888;2022-11-20T15:26:12;25.50;;;18.60;;
5245;SDS011;54412;51.206;6.888;2022-11-20T15:28:51;27.50;;;18.90;;
5245;SDS011;54412;51.206;6.888;2022-11-20T15:31:19;28.53;;;19.40;;
5245;SDS011;54412;51.206;6.888;2022-11-20T15:33:49;28.90;;;20.40;;
5245;SDS011;54412;51.206;6.888;2022-11-20T15:36:15;30.93;;;19.13;;
5245;SDS011;54412;51.206;6.888;2022-11-20T15:38:40;26.50;;;18.40;;
5245;SDS011;54412;51.206;6.888;2022-11-20T15:41:07;30.73;;;19.70;;
5245;SDS011;54412;51.206;6.888;2022-11-20T15:43:33;27.93;;;19.33;;
5245;SDS011;54412;51.206;6.888;2022-11-20T15:45:59;28.27;;;19.50;;
5245;SDS011;54412;51.206;6.888;2022-11-20T15:48:31;25.10;;;17.57;;
5245;SDS011;54412;51.206;6.888;2022-11-20T15:53:51;31.20;;;18.93;;
5245;SDS011;54412;51.206;6.888;2022-11-20T15:56:17;26.00;;;19.80;;
5245;SDS011;54412;51.206;6.888;2022-11-20T15:58:43;28.23;;;19.07;;
5245;SDS011;54412;51.206;6.888;2022-11-20T16:01:10;25.77;;;17.87;;
5245;SDS011;54412;51.206;6.888;2022-11-20T16:03:41;30.33;;;20.83;;
5245;SDS011;54412;51.206;6.888;2022-11-20T16:06:07;26.83;;;18.97;;
5245;SDS011;54412;51.206;6.888;2022-11-20T16:08:33;27.70;;;19.50;;
5245;SDS011;54412;51.206;6.888;2022-11-20T16:10:59;28.17;;;18.20;;
5245;SDS011;54412;51.206;6.888;2022-11-20T16:13:25;29.00;;;18.60;;
5245;SDS011;54412;51.206;6.888;2022-11-20T16:16:11;29.27;;;19.60;;
5245;SDS011;54412;51.206;6.888;2022-11-20T16:18:53;28.07;;;18.80;;
5245;SDS011;54412;51.206;6.888;2022-11-20T16:21:18;31.90;;;20.90;;
5245;SDS011;54412;51.206;6.888;2022-11-20T16:23:44;32.30;;;20.20;;
5245;SDS011;54412;51.206;6.888;2022-11-20T16:26:14;30.73;;;20.20;;
5245;SDS011;54412;51.206;6.888;2022-11-20T16:28:45;31.33;;;19.20;;
5245;SDS011;54412;51.206;6.888;2022-11-20T16:31:11;30.40;;;19.80;;
5245;SDS011;54412;51.206;6.888;2022-11-20T16:33:40;28.50;;;18.60;;